sensor_id;sensor_type;location;lat;lon;timestamp;pressure;altitude;pressure_sealevel;temperature;humidity
11339;BME280;5724;42.684;23.252;2023-04-24T00:00:13;94114.69;;;10.81;70.85
11339;BME280;5724;42.684;23.252;2023-04-24T00:02:41;94106.13;;;10.82;70.44
11339;BME280;5724;42.684;23.252;2023-04-24T00:05:12;94101.34;;;10.79;71.23
11339;BME280;5724;42.684;23.252;2023-04-24T00:07:37;94102.94;;;10.80;71.01
11339;BME280;5724;42.684;23.252;2023-04-24T00:10:03;94099.69;;;10.71;70.63
11339;BME280;5724;42.684;23.252;2023-04-24T00:12:29;94096.88;;;10.68;70.58
11339;BME280;5724;42.684;23.252;2023-04-24T00:14:54;94096.47;;;10.66;70.35
11339;BME280;5724;42.684;23.252;2023-04-24T00:17:20;94095.97;;;10.60;70.76
11339;BME280;5724;42.684;23.252;2023-04-24T00:19:47;94099.44;;;10.57;70.50
11339;BME280;5724;42.684;23.252;2023-04-24T00:22:12;94100.69;;;10.40;70.99
11339;BME280;5724;42.684;23.252;2023-04-24T00:24:41;94102.34;;;10.45;71.27
11339;BME280;5724;42.684;23.252;2023-04-24T00:27:06;94108.38;;;10.54;70.58
11339;BME280;5724;42.684;23.252;2023-04-24T00:29:32;94101.66;;;10.51;70.85
11339;BME280;5724;42.684;23.252;2023-04-24T00:31:57;94100.50;;;10.29;71.13
11339;BME280;5724;42.684;23.252;2023-04-24T00:34:23;94104.56;;;9.97;73.41
11339;BME280;5724;42.684;23.252;2023-04-24T00:36:48;94092.66;;;9.86;74.02
11339;BME280;5724;42.684;23.252;2023-04-24T00:39:21;94075.75;;;9.80;73.54
11339;BME280;5724;42.684;23.252;2023-04-24T00:41:47;94088.25;;;10.00;72.76
11339;BME280;5724;42.684;23.252;2023-04-24T00:44:14;94086.97;;;9.94;72.78
11339;BME280;5724;42.684;23.252;2023-04-24T00:46:40;94088.56;;;9.76;74.27
11339;BME280;5724;42.684;23.252;2023-04-24T00:49:06;94095.81;;;9.68;75.35
11339;BME280;5724;42.684;23.252;2023-04-24T00:51:32;94098.38;;;9.81;74.91
11339;BME280;5724;42.684;23.252;2023-04-24T00:53:59;94094.13;;;9.64;75.08
11339;BME280;5724;42.684;23.252;2023-04-24T00:56:24;94085.63;;;9.65;74.46
11339;BME280;5724;42.684;23.252;2023-04-24T00:58:50;94082.53;;;9.67;75.48
11339;BME280;5724;42.684;23.252;2023-04-24T01:01:16;94086.97;;;9.75;76.42
11339;BME280;5724;42.684;23.252;2023-04-24T01:03:43;94076.84;;;9.75;78.80
11339;BME280;5724;42.684;23.252;2023-04-24T01:06:10;94067.63;;;9.84;79.38
11339;BME280;5724;42.684;23.252;2023-04-24T01:08:35;94073.19;;;9.87;78.62
11339;BME280;5724;42.684;23.252;2023-04-24T01:11:03;94064.50;;;9.82;78.29
11339;BME280;5724;42.684;23.252;2023-04-24T01:13:29;94058.38;;;9.88;79.29
11339;BME280;5724;42.684;23.252;2023-04-24T01:15:55;94050.84;;;9.82;78.91
11339;BME280;5724;42.684;23.252;2023-04-24T01:18:20;94056.75;;;9.64;76.01
11339;BME280;5724;42.684;23.252;2023-04-24T01:20:48;94062.84;;;9.77;77.62
11339;BME280;5724;42.684;23.252;2023-04-24T01:23:17;94063.53;;;9.93;79.68
11339;BME280;5724;42.684;23.252;2023-04-24T01:25:42;94050.69;;;9.94;79.00
11339;BME280;5724;42.684;23.252;2023-04-24T01:28:08;94051.00;;;9.69;76.27
11339;BME280;5724;42.684;23.252;2023-04-24T01:30:33;94050.50;;;9.44;77.34
11339;BME280;5724;42.684;23.252;2023-04-24T01:32:59;94051.00;;;9.31;76.59
11339;BME280;5724;42.684;23.252;2023-04-24T01:35:25;94049.72;;;9.44;77.00
11339;BME280;5724;42.684;23.252;2023-04-24T01:37:51;94050.44;;;9.41;76.64
11339;BME280;5724;42.684;23.252;2023-04-24T01:40:16;94047.72;;;9.41;77.67
11339;BME280;5724;42.684;23.252;2023-04-24T01:42:42;94052.94;;;9.50;76.96
11339;BME280;5724;42.684;23.252;2023-04-24T01:45:10;94058.16;;;9.20;76.43
11339;BME280;5724;42.684;23.252;2023-04-24T01:47:36;94056.97;;;9.01;77.18
11339;BME280;5724;42.684;23.252;2023-04-24T01:50:02;94053.09;;;9.02;77.10
11339;BME280;5724;42.684;23.252;2023-04-24T01:52:28;94044.81;;;9.14;76.89
11339;BME280;5724;42.684;23.252;2023-04-24T01:54:56;94044.91;;;9.18;77.48
11339;BME280;5724;42.684;23.252;2023-04-24T01:57:24;94054.72;;;9.23;77.70
11339;BME280;5724;42.684;23.252;2023-04-24T01:59:51;94057.19;;;9.28;76.82
11339;BME280;5724;42.684;23.252;2023-04-24T02:02:17;94057.59;;;9.30;76.84
11339;BME280;5724;42.684;23.252;2023-04-24T02:04:43;94046.06;;;9.17;76.91
11339;BME280;5724;42.684;23.252;2023-04-24T02:07:08;94044.38;;;9.12;76.88
11339;BME280;5724;42.684;23.252;2023-04-24T02:09:33;94051.34;;;9.10;77.39
11339;BME280;5724;42.684;23.252;2023-04-24T02:11:59;94050.19;;;9.11;77.07
11339;BME280;5724;42.684;23.252;2023-04-24T02:14:25;94045.09;;;9.09;77.55
11339;BME280;5724;42.684;23.252;2023-04-24T02:16:51;94050.44;;;9.06;79.00
11339;BME280;5724;42.684;23.252;2023-04-24T02:19:16;94054.72;;;8.87;80.50
11339;BME280;5724;42.684;23.252;2023-04-24T02:21:42;94045.50;;;8.92;80.40
11339;BME280;5724;42.684;23.252;2023-04-24T02:24:07;94046.44;;;9.00;80.08
11339;BME280;5724;42.684;23.252;2023-04-24T02:26:32;94042.63;;;9.04;79.92
11339;BME280;5724;42.684;23.252;2023-04-24T02:28:58;94040.91;;;8.96;79.47
11339;BME280;5724;42.684;23.252;2023-04-24T02:31:23;94036.78;;;8.86;79.86
11339;BME280;5724;42.684;23.252;2023-04-24T02:33:49;94026.91;;;8.63;81.41
11339;BME280;5724;42.684;23.252;2023-04-24T02:36:14;94014.34;;;8.58;80.84
11339;BME280;5724;42.684;23.252;2023-04-24T02:38:40;94019.25;;;8.68;80.76
11339;BME280;5724;42.684;23.252;2023-04-24T02:41:05;94020.22;;;8.76;80.62
11339;BME280;5724;42.684;23.252;2023-04-24T02:43:32;94024.97;;;8.79;81.26
11339;BME280;5724;42.684;23.252;2023-04-24T02:45:58;94018.38;;;8.80;80.39
11339;BME280;5724;42.684;23.252;2023-04-24T02:48:24;94011.06;;;8.84;80.20
11339;BME280;5724;42.684;23.252;2023-04-24T02:50:49;94007.91;;;8.82;81.43
11339;BME280;5724;42.684;23.252;2023-04-24T02:53:16;93981.06;;;8.65;81.05
11339;BME280;5724;42.684;23.252;2023-04-24T02:55:41;94007.84;;;8.78;81.23
11339;BME280;5724;42.684;23.252;2023-04-24T02:58:07;94014.63;;;8.69;80.83
11339;BME280;5724;42.684;23.252;2023-04-24T03:00:32;94014.91;;;8.32;82.66
11339;BME280;5724;42.684;23.252;2023-04-24T03:02:58;94024.63;;;8.17;82.92
11339;BME280;5724;42.684;23.252;2023-04-24T03:05:23;94028.13;;;7.86;85.08
11339;BME280;5724;42.684;23.252;2023-04-24T03:07:49;94023.28;;;7.80;84.61
11339;BME280;5724;42.684;23.252;2023-04-24T03:10:14;94032.44;;;7.59;85.79
11339;BME280;5724;42.684;23.252;2023-04-24T03:12:40;94025.09;;;7.60;85.25
11339;BME280;5724;42.684;23.252;2023-04-24T03:15:06;94025.88;;;7.60;85.34
11339;BME280;5724;42.684;23.252;2023-04-24T03:17:32;94033.00;;;7.65;85.13
11339;BME280;5724;42.684;23.252;2023-04-24T03:19:57;94034.94;;;7.80;84.99
11339;BME280;5724;42.684;23.252;2023-04-24T03:22:23;94036.97;;;7.83;82.08
11339;BME280;5724;42.684;23.252;2023-04-24T03:24:48;94036.97;;;7.83;82.74
11339;BME280;5724;42.684;23.252;2023-04-24T03:27:14;94024.97;;;7.84;83.28
11339;BME280;5724;42.684;23.252;2023-04-24T03:29:39;94025.16;;;7.91;83.17
11339;BME280;5724;42.684;23.252;2023-04-24T03:32:05;94039.03;;;8.02;82.39
11339;BME280;5724;42.684;23.252;2023-04-24T03:34:31;94036.91;;;7.95;81.35
11339;BME280;5724;42.684;23.252;2023-04-24T03:36:56;94029.72;;;8.03;81.12
11339;BME280;5724;42.684;23.252;2023-04-24T03:39:22;94024.19;;;8.15;81.05
11339;BME280;5724;42.684;23.252;2023-04-24T03:41:47;94028.06;;;8.30;81.13
11339;BME280;5724;42.684;23.252;2023-04-24T03:44:13;94031.16;;;8.44;80.34
11339;BME280;5724;42.684;23.252;2023-04-24T03:46:38;94029.50;;;8.40;80.02
11339;BME280;5724;42.684;23.252;2023-04-24T03:49:03;94031.34;;;8.51;79.93
11339;BME280;5724;42.684;23.252;2023-04-24T03:51:29;94029.22;;;8.60;79.89
11339;BME280;5724;42.684;23.252;2023-04-24T03:53:56;94027.88;;;8.70;80.22
11339;BME280;5724;42.684;23.252;2023-04-24T03:56:21;94023.28;;;8.74;79.82
11339;BME280;5724;42.684;23.252;2023-04-24T03:58:46;94031.88;;;8.76;78.69
11339;BME280;5724;42.684;23.252;2023-04-24T04:01:12;94032.41;;;8.82;77.58
11339;BME280;5724;42.684;23.252;2023-04-24T04:03:38;94036.31;;;8.65;77.48
11339;BME280;5724;42.684;23.252;2023-04-24T04:06:05;94023.66;;;8.73;77.08
11339;BME280;5724;42.684;23.252;2023-04-24T04:08:31;94020.13;;;8.88;77.18
11339;BME280;5724;42.684;23.252;2023-04-24T04:10:56;94024.44;;;9.08;78.09
11339;BME280;5724;42.684;23.252;2023-04-24T04:13:22;94024.16;;;9.13;77.09
11339;BME280;5724;42.684;23.252;2023-04-24T04:15:47;94032.47;;;9.21;76.70
11339;BME280;5724;42.684;23.252;2023-04-24T04:18:12;94027.97;;;9.09;76.21
11339;BME280;5724;42.684;23.252;2023-04-24T04:20:38;94031.19;;;9.14;75.64
11339;BME280;5724;42.684;23.252;2023-04-24T04:23:03;94033.00;;;8.91;74.99
11339;BME280;5724;42.684;23.252;2023-04-24T04:25:29;94033.03;;;9.10;75.63
11339;BME280;5724;42.684;23.252;2023-04-24T04:27:54;94038.34;;;9.23;75.19
11339;BME280;5724;42.684;23.252;2023-04-24T04:30:20;94002.97;;;9.07;74.67
11339;BME280;5724;42.684;23.252;2023-04-24T04:32:46;94042.03;;;9.30;74.64
11339;BME280;5724;42.684;23.252;2023-04-24T04:35:12;94041.59;;;9.28;74.75
11339;BME280;5724;42.684;23.252;2023-04-24T04:37:37;94052.19;;;9.14;75.04
11339;BME280;5724;42.684;23.252;2023-04-24T04:40:03;94056.63;;;9.03;76.37
11339;BME280;5724;42.684;23.252;2023-04-24T04:42:32;94051.50;;;8.82;75.99
11339;BME280;5724;42.684;23.252;2023-04-24T04:44:59;94054.97;;;8.98;76.06
11339;BME280;5724;42.684;23.252;2023-04-24T04:47:26;94058.50;;;8.83;77.29
11339;BME280;5724;42.684;23.252;2023-04-24T04:49:52;94059.53;;;8.94;76.99
11339;BME280;5724;42.684;23.252;2023-04-24T04:52:18;94066.50;;;8.92;77.26
11339;BME280;5724;42.684;23.252;2023-04-24T04:54:43;94070.09;;;8.96;77.37
11339;BME280;5724;42.684;23.252;2023-04-24T04:57:10;94064.59;;;9.11;76.59
11339;BME280;5724;42.684;23.252;2023-04-24T04:59:35;94064.03;;;9.22;76.66
11339;BME280;5724;42.684;23.252;2023-04-24T05:02:00;94062.75;;;9.35;76.42
11339;BME280;5724;42.684;23.252;2023-04-24T05:04:26;94071.47;;;9.40;75.19
11339;BME280;5724;42.684;23.252;2023-04-24T05:06:52;94068.22;;;9.35;74.26
11339;BME280;5724;42.684;23.252;2023-04-24T05:09:18;94068.66;;;9.37;74.80
11339;BME280;5724;42.684;23.252;2023-04-24T05:11:43;94060.31;;;9.30;73.55
11339;BME280;5724;42.684;23.252;2023-04-24T05:14:09;94052.28;;;9.17;73.44
11339;BME280;5724;42.684;23.252;2023-04-24T05:16:35;94066.63;;;9.34;73.70
11339;BME280;5724;42.684;23.252;2023-04-24T05:19:02;94066.53;;;9.46;73.83
11339;BME280;5724;42.684;23.252;2023-04-24T05:21:28;94062.34;;;9.52;73.20
11339;BME280;5724;42.684;23.252;2023-04-24T05:23:54;94054.00;;;9.64;72.50
11339;BME280;5724;42.684;23.252;2023-04-24T05:26:20;94062.97;;;9.65;73.47
11339;BME280;5724;42.684;23.252;2023-04-24T05:28:45;94066.50;;;9.85;73.06
11339;BME280;5724;42.684;23.252;2023-04-24T05:31:10;94057.84;;;10.02;72.23
11339;BME280;5724;42.684;23.252;2023-04-24T05:33:37;94060.72;;;10.09;71.87
11339;BME280;5724;42.684;23.252;2023-04-24T05:36:03;94055.25;;;10.09;72.24
11339;BME280;5724;42.684;23.252;2023-04-24T05:38:30;94067.03;;;10.13;72.80
11339;BME280;5724;42.684;23.252;2023-04-24T05:40:56;94074.66;;;10.23;71.62
11339;BME280;5724;42.684;23.252;2023-04-24T05:43:21;94079.81;;;10.28;71.06
11339;BME280;5724;42.684;23.252;2023-04-24T05:45:47;94061.06;;;10.27;71.14
11339;BME280;5724;42.684;23.252;2023-04-24T05:48:12;94074.16;;;10.41;70.75
11339;BME280;5724;42.684;23.252;2023-04-24T05:50:38;94066.66;;;10.57;70.08
11339;BME280;5724;42.684;23.252;2023-04-24T05:53:03;94068.31;;;10.62;69.15
11339;BME280;5724;42.684;23.252;2023-04-24T05:55:30;94051.63;;;10.70;68.51
11339;BME280;5724;42.684;23.252;2023-04-24T05:57:56;94064.78;;;10.87;69.90
11339;BME280;5724;42.684;23.252;2023-04-24T06:00:22;94064.16;;;10.98;67.50
11339;BME280;5724;42.684;23.252;2023-04-24T06:02:47;94069.94;;;11.19;68.33
11339;BME280;5724;42.684;23.252;2023-04-24T06:05:13;94064.31;;;11.35;66.05
11339;BME280;5724;42.684;23.252;2023-04-24T06:07:39;94065.75;;;11.55;66.42
11339;BME280;5724;42.684;23.252;2023-04-24T06:10:05;94065.06;;;11.62;65.63
11339;BME280;5724;42.684;23.252;2023-04-24T06:12:31;94059.97;;;11.90;65.40
11339;BME280;5724;42.684;23.252;2023-04-24T06:14:57;94064.97;;;12.18;64.65
11339;BME280;5724;42.684;23.252;2023-04-24T06:17:22;94072.94;;;12.34;63.43
11339;BME280;5724;42.684;23.252;2023-04-24T06:19:47;94076.22;;;12.50;63.51
11339;BME280;5724;42.684;23.252;2023-04-24T06:22:13;94075.41;;;12.46;62.96
11339;BME280;5724;42.684;23.252;2023-04-24T06:24:39;94061.91;;;12.68;63.05
11339;BME280;5724;42.684;23.252;2023-04-24T06:27:05;94067.16;;;12.90;62.97
11339;BME280;5724;42.684;23.252;2023-04-24T06:29:31;94073.25;;;13.17;60.99
11339;BME280;5724;42.684;23.252;2023-04-24T06:31:56;94038.19;;;12.89;60.01
11339;BME280;5724;42.684;23.252;2023-04-24T06:34:22;94082.84;;;12.90;60.65
11339;BME280;5724;42.684;23.252;2023-04-24T06:36:47;94076.47;;;12.79;60.53
11339;BME280;5724;42.684;23.252;2023-04-24T06:39:13;94040.53;;;12.43;60.19
11339;BME280;5724;42.684;23.252;2023-04-24T06:41:38;94024.75;;;12.26;60.49
11339;BME280;5724;42.684;23.252;2023-04-24T06:44:05;94078.75;;;12.29;61.16
11339;BME280;5724;42.684;23.252;2023-04-24T06:46:30;94072.72;;;12.53;61.30
11339;BME280;5724;42.684;23.252;2023-04-24T06:48:56;94081.50;;;12.70;61.46
11339;BME280;5724;42.684;23.252;2023-04-24T06:51:25;94072.09;;;12.67;61.08
11339;BME280;5724;42.684;23.252;2023-04-24T06:53:53;94058.44;;;12.74;60.68
11339;BME280;5724;42.684;23.252;2023-04-24T06:56:19;94071.59;;;13.06;60.57
11339;BME280;5724;42.684;23.252;2023-04-24T06:58:46;94069.19;;;12.97;61.30
11339;BME280;5724;42.684;23.252;2023-04-24T07:01:11;94069.19;;;12.97;60.66
11339;BME280;5724;42.684;23.252;2023-04-24T07:03:37;94062.84;;;12.86;60.49
11339;BME280;5724;42.684;23.252;2023-04-24T07:06:02;94061.81;;;13.08;60.49
11339;BME280;5724;42.684;23.252;2023-04-24T07:08:29;94058.31;;;13.11;59.65
11339;BME280;5724;42.684;23.252;2023-04-24T07:10:56;94054.59;;;13.41;59.32
11339;BME280;5724;42.684;23.252;2023-04-24T07:13:22;94064.69;;;13.23;59.51
11339;BME280;5724;42.684;23.252;2023-04-24T07:15:48;94056.34;;;13.08;60.38
11339;BME280;5724;42.684;23.252;2023-04-24T07:18:16;94054.69;;;13.55;60.19
11339;BME280;5724;42.684;23.252;2023-04-24T07:20:41;94052.38;;;13.64;59.63
11339;BME280;5724;42.684;23.252;2023-04-24T07:23:07;94045.72;;;13.65;58.91
11339;BME280;5724;42.684;23.252;2023-04-24T07:25:32;94034.38;;;13.78;58.41
11339;BME280;5724;42.684;23.252;2023-04-24T07:27:58;94040.34;;;13.94;57.08
11339;BME280;5724;42.684;23.252;2023-04-24T07:30:24;94046.69;;;14.26;56.72
11339;BME280;5724;42.684;23.252;2023-04-24T07:32:49;94038.47;;;14.37;55.85
11339;BME280;5724;42.684;23.252;2023-04-24T07:35:15;94040.44;;;14.29;56.41
11339;BME280;5724;42.684;23.252;2023-04-24T07:37:41;94037.38;;;14.49;55.92
11339;BME280;5724;42.684;23.252;2023-04-24T07:40:12;94043.66;;;14.49;56.28
11339;BME280;5724;42.684;23.252;2023-04-24T07:42:37;94041.31;;;14.69;55.74
11339;BME280;5724;42.684;23.252;2023-04-24T07:45:03;94039.75;;;14.89;55.95
11339;BME280;5724;42.684;23.252;2023-04-24T07:47:29;94034.25;;;14.97;54.38
11339;BME280;5724;42.684;23.252;2023-04-24T07:49:55;94035.78;;;15.12;53.40
11339;BME280;5724;42.684;23.252;2023-04-24T07:52:21;94025.53;;;15.23;54.06
11339;BME280;5724;42.684;23.252;2023-04-24T07:54:46;94034.19;;;15.36;54.50
11339;BME280;5724;42.684;23.252;2023-04-24T07:57:12;94027.88;;;15.42;54.99
11339;BME280;5724;42.684;23.252;2023-04-24T07:59:37;94033.00;;;15.30;53.18
11339;BME280;5724;42.684;23.252;2023-04-24T08:02:03;94028.72;;;15.11;53.12
11339;BME280;5724;42.684;23.252;2023-04-24T08:04:28;94023.22;;;15.18;53.35
11339;BME280;5724;42.684;23.252;2023-04-24T08:06:54;94019.31;;;14.98;55.21
11339;BME280;5724;42.684;23.252;2023-04-24T08:09:19;94022.34;;;15.42;53.78
11339;BME280;5724;42.684;23.252;2023-04-24T08:11:45;94025.88;;;15.68;54.00
11339;BME280;5724;42.684;23.252;2023-04-24T08:14:10;94009.75;;;15.66;52.80
11339;BME280;5724;42.684;23.252;2023-04-24T08:16:38;94019.84;;;15.91;52.34
11339;BME280;5724;42.684;23.252;2023-04-24T08:19:04;94020.16;;;16.11;51.89
11339;BME280;5724;42.684;23.252;2023-04-24T08:21:29;94018.88;;;16.33;52.32
11339;BME280;5724;42.684;23.252;2023-04-24T08:23:55;94012.97;;;16.27;50.96
11339;BME280;5724;42.684;23.252;2023-04-24T08:26:20;94012.97;;;16.31;50.56
11339;BME280;5724;42.684;23.252;2023-04-24T08:28:46;94009.38;;;16.38;50.59
11339;BME280;5724;42.684;23.252;2023-04-24T08:31:11;94014.19;;;16.26;51.73
11339;BME280;5724;42.684;23.252;2023-04-24T08:33:36;94012.44;;;16.54;50.73
11339;BME280;5724;42.684;23.252;2023-04-24T08:36:03;94009.22;;;16.63;51.49
11339;BME280;5724;42.684;23.252;2023-04-24T08:38:29;94006.09;;;16.60;51.23
11339;BME280;5724;42.684;23.252;2023-04-24T08:40:57;93989.03;;;16.80;50.01
11339;BME280;5724;42.684;23.252;2023-04-24T08:43:25;93987.13;;;16.70;49.24
11339;BME280;5724;42.684;23.252;2023-04-24T08:45:51;93983.56;;;16.66;50.37
11339;BME280;5724;42.684;23.252;2023-04-24T08:48:18;93981.91;;;16.79;50.31
11339;BME280;5724;42.684;23.252;2023-04-24T08:50:44;93981.03;;;16.93;50.85
11339;BME280;5724;42.684;23.252;2023-04-24T08:53:10;93976.00;;;17.22;50.17
11339;BME280;5724;42.684;23.252;2023-04-24T08:55:37;93974.41;;;17.24;48.67
11339;BME280;5724;42.684;23.252;2023-04-24T08:58:03;93970.25;;;17.43;49.26
11339;BME280;5724;42.684;23.252;2023-04-24T09:00:29;93961.16;;;17.80;48.71
11339;BME280;5724;42.684;23.252;2023-04-24T09:02:55;93967.69;;;17.97;47.66
11339;BME280;5724;42.684;23.252;2023-04-24T09:05:22;93954.66;;;18.24;47.71
11339;BME280;5724;42.684;23.252;2023-04-24T09:07:56;93947.59;;;18.20;47.59
11339;BME280;5724;42.684;23.252;2023-04-24T09:10:23;93944.28;;;18.05;47.28
11339;BME280;5724;42.684;23.252;2023-04-24T09:12:50;93940.34;;;18.02;46.49
11339;BME280;5724;42.684;23.252;2023-04-24T09:15:17;93936.69;;;18.09;46.31
11339;BME280;5724;42.684;23.252;2023-04-24T09:17:43;93938.97;;;18.14;47.00
11339;BME280;5724;42.684;23.252;2023-04-24T09:20:09;93930.16;;;18.23;46.51
11339;BME280;5724;42.684;23.252;2023-04-24T09:22:34;93932.63;;;18.44;46.49
11339;BME280;5724;42.684;23.252;2023-04-24T09:25:05;93926.56;;;18.53;45.96
11339;BME280;5724;42.684;23.252;2023-04-24T09:27:35;93884.06;;;18.16;45.00
11339;BME280;5724;42.684;23.252;2023-04-24T09:30:01;93920.47;;;18.38;45.12
11339;BME280;5724;42.684;23.252;2023-04-24T09:32:28;93917.00;;;18.34;47.04
11339;BME280;5724;42.684;23.252;2023-04-24T09:35:09;93914.34;;;18.23;46.50
11339;BME280;5724;42.684;23.252;2023-04-24T09:37:44;93925.06;;;18.48;46.90
11339;BME280;5724;42.684;23.252;2023-04-24T09:40:15;93918.38;;;18.73;46.90
11339;BME280;5724;42.684;23.252;2023-04-24T09:42:45;93922.88;;;18.86;44.68
11339;BME280;5724;42.684;23.252;2023-04-24T09:45:11;93912.25;;;19.05;44.34
11339;BME280;5724;42.684;23.252;2023-04-24T09:47:38;93914.47;;;19.13;44.33
11339;BME280;5724;42.684;23.252;2023-04-24T09:50:15;93908.28;;;19.06;46.29
11339;BME280;5724;42.684;23.252;2023-04-24T09:52:56;93912.88;;;19.36;44.60
11339;BME280;5724;42.684;23.252;2023-04-24T09:55:22;93916.25;;;19.04;44.71
11339;BME280;5724;42.684;23.252;2023-04-24T09:57:53;93907.91;;;18.34;45.34
11339;BME280;5724;42.684;23.252;2023-04-24T10:00:24;93905.59;;;18.28;44.81
11339;BME280;5724;42.684;23.252;2023-04-24T10:02:54;93892.28;;;17.62;46.24
11339;BME280;5724;42.684;23.252;2023-04-24T10:05:23;93906.47;;;17.64;46.76
11339;BME280;5724;42.684;23.252;2023-04-24T10:07:49;93887.66;;;17.86;46.58
11339;BME280;5724;42.684;23.252;2023-04-24T10:10:14;93885.00;;;17.79;45.45
11339;BME280;5724;42.684;23.252;2023-04-24T10:12:40;93882.47;;;18.42;46.36
11339;BME280;5724;42.684;23.252;2023-04-24T10:15:09;93869.19;;;18.80;41.80
11339;BME280;5724;42.684;23.252;2023-04-24T10:17:35;93863.34;;;19.38;40.89
11339;BME280;5724;42.684;23.252;2023-04-24T10:20:01;93851.44;;;19.61;40.69
11339;BME280;5724;42.684;23.252;2023-04-24T10:22:28;93859.44;;;19.15;40.46
11339;BME280;5724;42.684;23.252;2023-04-24T10:24:55;93868.47;;;19.20;41.07
11339;BME280;5724;42.684;23.252;2023-04-24T10:27:22;93852.13;;;19.25;41.79
11339;BME280;5724;42.684;23.252;2023-04-24T10:29:50;93860.88;;;19.43;42.46
11339;BME280;5724;42.684;23.252;2023-04-24T10:32:18;93858.59;;;19.38;39.81
11339;BME280;5724;42.684;23.252;2023-04-24T10:34:43;93857.25;;;19.27;40.58
11339;BME280;5724;42.684;23.252;2023-04-24T10:37:09;93850.16;;;19.06;39.69
11339;BME280;5724;42.684;23.252;2023-04-24T10:39:35;93846.25;;;19.23;40.53
11339;BME280;5724;42.684;23.252;2023-04-24T10:42:14;93848.28;;;19.19;41.19
11339;BME280;5724;42.684;23.252;2023-04-24T10:44:41;93847.16;;;19.16;41.17
11339;BME280;5724;42.684;23.252;2023-04-24T10:47:12;93840.97;;;19.29;41.76
11339;BME280;5724;42.684;23.252;2023-04-24T10:49:39;93841.47;;;19.43;39.61
11339;BME280;5724;42.684;23.252;2023-04-24T10:52:05;93849.38;;;19.65;39.13
11339;BME280;5724;42.684;23.252;2023-04-24T11:00:13;93837.16;;;19.42;39.60
11339;BME280;5724;42.684;23.252;2023-04-24T11:02:40;93837.19;;;19.39;41.21
11339;BME280;5724;42.684;23.252;2023-04-24T11:05:08;93837.44;;;19.08;41.13
11339;BME280;5724;42.684;23.252;2023-04-24T11:08:21;93837.06;;;18.86;39.80
11339;BME280;5724;42.684;23.252;2023-04-24T11:13:24;93849.53;;;18.01;42.98
11339;BME280;5724;42.684;23.252;2023-04-24T11:16:13;93864.31;;;17.60;51.34
11339;BME280;5724;42.684;23.252;2023-04-24T11:18:39;93892.34;;;15.90;58.85
11339;BME280;5724;42.684;23.252;2023-04-24T11:21:12;93906.69;;;15.57;61.18
11339;BME280;5724;42.684;23.252;2023-04-24T11:23:39;93895.50;;;15.92;62.85
11339;BME280;5724;42.684;23.252;2023-04-24T11:26:21;93882.81;;;16.06;61.18
11339;BME280;5724;42.684;23.252;2023-04-24T11:28:47;93889.66;;;16.35;62.07
11339;BME280;5724;42.684;23.252;2023-04-24T11:31:39;93889.22;;;16.40;58.17
11339;BME280;5724;42.684;23.252;2023-04-24T11:34:13;93874.31;;;16.34;60.96
11339;BME280;5724;42.684;23.252;2023-04-24T11:36:42;93862.19;;;16.24;60.86
11339;BME280;5724;42.684;23.252;2023-04-24T11:39:08;93855.84;;;16.27;61.68
11339;BME280;5724;42.684;23.252;2023-04-24T11:41:34;93846.84;;;16.65;61.80
11339;BME280;5724;42.684;23.252;2023-04-24T11:44:00;93848.22;;;16.87;63.67
11339;BME280;5724;42.684;23.252;2023-04-24T11:46:28;93846.31;;;17.18;61.98
11339;BME280;5724;42.684;23.252;2023-04-24T11:48:54;93843.50;;;17.22;61.87
11339;BME280;5724;42.684;23.252;2023-04-24T11:51:20;93842.38;;;17.46;64.29
11339;BME280;5724;42.684;23.252;2023-04-24T11:53:45;93837.28;;;17.75;62.30
11339;BME280;5724;42.684;23.252;2023-04-24T11:56:11;93836.09;;;17.76;61.81
11339;BME280;5724;42.684;23.252;2023-04-24T11:58:40;93824.63;;;17.78;60.74
11339;BME280;5724;42.684;23.252;2023-04-24T12:01:05;93821.88;;;18.01;60.16
11339;BME280;5724;42.684;23.252;2023-04-24T12:03:31;93821.78;;;18.31;60.31
11339;BME280;5724;42.684;23.252;2023-04-24T12:06:15;93817.22;;;18.21;60.37
11339;BME280;5724;42.684;23.252;2023-04-24T12:08:41;93828.38;;;18.14;57.79
11339;BME280;5724;42.684;23.252;2023-04-24T12:11:07;93819.97;;;18.21;55.92
11339;BME280;5724;42.684;23.252;2023-04-24T12:13:34;93818.03;;;17.95;50.75
11339;BME280;5724;42.684;23.252;2023-04-24T12:16:03;93810.38;;;18.06;52.39
11339;BME280;5724;42.684;23.252;2023-04-24T12:18:32;93815.84;;;18.10;50.94
11339;BME280;5724;42.684;23.252;2023-04-24T12:21:20;93807.59;;;18.06;51.19
11339;BME280;5724;42.684;23.252;2023-04-24T12:23:47;93804.38;;;18.35;52.31
11339;BME280;5724;42.684;23.252;2023-04-24T12:26:17;93793.78;;;18.53;52.60
11339;BME280;5724;42.684;23.252;2023-04-24T12:28:45;93794.41;;;18.60;49.75
11339;BME280;5724;42.684;23.252;2023-04-24T12:31:11;93777.84;;;18.80;49.45
11339;BME280;5724;42.684;23.252;2023-04-24T12:33:37;93780.84;;;19.09;49.65
11339;BME280;5724;42.684;23.252;2023-04-24T12:36:03;93771.25;;;19.14;49.97
11339;BME280;5724;42.684;23.252;2023-04-24T12:38:30;93770.19;;;19.08;48.76
11339;BME280;5724;42.684;23.252;2023-04-24T12:41:22;93757.91;;;19.09;47.75
11339;BME280;5724;42.684;23.252;2023-04-24T12:43:51;93765.72;;;19.14;49.54
11339;BME280;5724;42.684;23.252;2023-04-24T12:46:17;93750.41;;;19.45;48.78
11339;BME280;5724;42.684;23.252;2023-04-24T12:48:43;93755.13;;;19.65;46.90
11339;BME280;5724;42.684;23.252;2023-04-24T12:51:08;93746.22;;;19.37;46.17
11339;BME280;5724;42.684;23.252;2023-04-24T12:53:34;93736.00;;;19.34;46.23
11339;BME280;5724;42.684;23.252;2023-04-24T12:55:59;93733.66;;;19.33;46.96
11339;BME280;5724;42.684;23.252;2023-04-24T12:58:25;93729.31;;;18.76;46.11
11339;BME280;5724;42.684;23.252;2023-04-24T13:00:51;93715.72;;;18.65;46.81
11339;BME280;5724;42.684;23.252;2023-04-24T13:03:17;93716.41;;;18.89;46.79
11339;BME280;5724;42.684;23.252;2023-04-24T13:05:43;93711.72;;;18.86;45.81
11339;BME280;5724;42.684;23.252;2023-04-24T13:08:09;93704.75;;;18.98;45.64
11339;BME280;5724;42.684;23.252;2023-04-24T13:10:34;93706.13;;;19.26;47.89